Pagrindinis puslapis
METAR-TAF:

METAR-TAF

Oro uostai :

Toamasina, Madagaskaras

platuma: 18-07S, ilguma: 049-24E, Aukštis: 5 m

Dabartinis oras

Ataskaita buvo paskelbta 56 minutes, ne 22:00 UTC
Vėjas 6 kt iš Pietvakarių
Temperatūra 24°C
Drėgmė 94%
Slėgis 1016 hPa
Matomumas 10 km arba daugiau
Išsisklaidę debesys ne aukštis 1700 ft
Išsisklaidę debesys ne aukštis 3300 ft
Liūtis kaimynystėje

METAR: FMMT 122200Z 23006KT 9999 VCSH SCT017 SCT033 24/23 Q1016 NOSIG

Laikas: 01:56 (22:56 UTC)

Prognozė

Ataskaita buvo paskelbta 5 valandos ir 56 minutes, ne 17:00 UTC
Prognozė galioja nuo 12 metu 18 UTC su 13 metu 18 UTC
Vėjas 10 kt iš Pietvakarių
Matomumas: 8000 m
Mažai debesys ne aukštis 700 ft
Išsisklaidę debesys ne aukštis 1700 ft, Liūtiniai kamuoliniai debesys.
Su prošvaistėmis ne aukštis 3300 ft
Laikinai
nuo 12 metu 18 UTC su 13 metu 18 UTC
Matomumas: 4000 m
perkūnija, lietus

TAF: FMMT 121700Z 1218/1318 22010KT 8000 FEW007 SCT017CB BKN033 TEMPO 1218/1318 4000 TSRA

Orai ataskaitas ir orų prognozės (METAR, TAF).

turimą stotys yra geltonos ir raudonos taškus žemėlapyje.

Perkelti pele per norėdami pamatyti stoties vardą.

Tada spustelėkite, norėdami matyti oro stebėjimo ir prognozės.

Norėdami pakeisti žemėlapį: spustelėkite ant žalios mygtukų su juodo kryžiaus žemyn,; žalią mygtuką su brūkšneliu, jei norite nutolinti; arba žalių rodyklių gretimoms žemėlapius.


METAR-TAF: